sensor_id;sensor_type;location;lat;lon;timestamp;P1;durP1;ratioP1;P2;durP2;ratioP2
75820;SDS011;64454;51.984;9.838;2024-02-04T00:01:26;8.00;;;5.57;;
75820;SDS011;64454;51.984;9.838;2024-02-04T00:03:52;7.80;;;5.00;;
75820;SDS011;64454;51.984;9.838;2024-02-04T00:06:18;8.80;;;5.57;;
75820;SDS011;64454;51.984;9.838;2024-02-04T00:08:44;6.53;;;4.90;;
75820;SDS011;64454;51.984;9.838;2024-02-04T00:11:10;6.80;;;4.97;;
75820;SDS011;64454;51.984;9.838;2024-02-04T00:13:37;6.93;;;5.60;;
75820;SDS011;64454;51.984;9.838;2024-02-04T00:16:04;7.45;;;5.22;;
75820;SDS011;64454;51.984;9.838;2024-02-04T00:18:30;7.72;;;5.32;;
75820;SDS011;64454;51.984;9.838;2024-02-04T00:20:57;8.45;;;5.22;;
75820;SDS011;64454;51.984;9.838;2024-02-04T00:23:23;5.85;;;5.10;;
75820;SDS011;64454;51.984;9.838;2024-02-04T00:25:49;6.65;;;5.10;;
75820;SDS011;64454;51.984;9.838;2024-02-04T00:28:15;7.78;;;5.47;;
75820;SDS011;64454;51.984;9.838;2024-02-04T00:30:43;6.65;;;4.80;;
75820;SDS011;64454;51.984;9.838;2024-02-04T00:33:09;5.83;;;5.00;;
75820;SDS011;64454;51.984;9.838;2024-02-04T00:35:35;8.02;;;5.25;;
75820;SDS011;64454;51.984;9.838;2024-02-04T00:38:02;6.50;;;5.13;;
75820;SDS011;64454;51.984;9.838;2024-02-04T00:40:28;7.40;;;4.88;;
75820;SDS011;64454;51.984;9.838;2024-02-04T00:42:54;9.10;;;6.10;;
75820;SDS011;64454;51.984;9.838;2024-02-04T00:45:20;7.78;;;4.70;;
75820;SDS011;64454;51.984;9.838;2024-02-04T00:47:46;9.00;;;5.45;;
75820;SDS011;64454;51.984;9.838;2024-02-04T00:50:13;8.15;;;5.50;;
75820;SDS011;64454;51.984;9.838;2024-02-04T00:52:39;6.40;;;5.45;;
75820;SDS011;64454;51.984;9.838;2024-02-04T00:55:06;6.22;;;5.43;;
75820;SDS011;64454;51.984;9.838;2024-02-04T00:57:33;8.00;;;6.25;;
75820;SDS011;64454;51.984;9.838;2024-02-04T00:59:59;7.22;;;5.70;;
75820;SDS011;64454;51.984;9.838;2024-02-04T01:02:25;7.70;;;5.70;;
75820;SDS011;64454;51.984;9.838;2024-02-04T01:04:51;7.75;;;5.95;;
75820;SDS011;64454;51.984;9.838;2024-02-04T01:07:18;9.85;;;5.93;;
75820;SDS011;64454;51.984;9.838;2024-02-04T01:09:44;9.75;;;6.60;;
75820;SDS011;64454;51.984;9.838;2024-02-04T01:12:10;8.23;;;6.57;;
75820;SDS011;64454;51.984;9.838;2024-02-04T01:14:37;7.50;;;6.00;;
75820;SDS011;64454;51.984;9.838;2024-02-04T01:17:03;7.93;;;6.40;;
75820;SDS011;64454;51.984;9.838;2024-02-04T01:19:29;7.87;;;5.47;;
75820;SDS011;64454;51.984;9.838;2024-02-04T01:21:55;10.02;;;6.30;;
75820;SDS011;64454;51.984;9.838;2024-02-04T01:24:23;8.05;;;5.45;;
75820;SDS011;64454;51.984;9.838;2024-02-04T01:26:50;9.05;;;6.38;;
75820;SDS011;64454;51.984;9.838;2024-02-04T01:29:16;7.80;;;5.70;;
75820;SDS011;64454;51.984;9.838;2024-02-04T01:31:42;7.63;;;5.73;;
75820;SDS011;64454;51.984;9.838;2024-02-04T01:34:08;9.55;;;5.97;;
75820;SDS011;64454;51.984;9.838;2024-02-04T01:36:34;9.40;;;5.30;;
75820;SDS011;64454;51.984;9.838;2024-02-04T01:39:01;8.43;;;5.57;;
75820;SDS011;64454;51.984;9.838;2024-02-04T01:41:28;7.03;;;5.53;;
75820;SDS011;64454;51.984;9.838;2024-02-04T01:43:55;7.72;;;5.43;;
75820;SDS011;64454;51.984;9.838;2024-02-04T01:46:21;8.13;;;5.00;;
75820;SDS011;64454;51.984;9.838;2024-02-04T01:48:47;7.60;;;5.60;;
75820;SDS011;64454;51.984;9.838;2024-02-04T01:51:14;7.10;;;5.83;;
75820;SDS011;64454;51.984;9.838;2024-02-04T01:53:44;6.82;;;5.35;;
75820;SDS011;64454;51.984;9.838;2024-02-04T01:56:11;9.25;;;5.70;;
75820;SDS011;64454;51.984;9.838;2024-02-04T01:58:39;8.30;;;5.90;;
75820;SDS011;64454;51.984;9.838;2024-02-04T02:01:07;8.57;;;6.05;;
75820;SDS011;64454;51.984;9.838;2024-02-04T02:03:34;7.15;;;5.70;;
75820;SDS011;64454;51.984;9.838;2024-02-04T02:06:01;6.57;;;5.13;;
75820;SDS011;64454;51.984;9.838;2024-02-04T02:08:28;9.73;;;5.90;;
75820;SDS011;64454;51.984;9.838;2024-02-04T02:10:56;9.87;;;6.07;;
75820;SDS011;64454;51.984;9.838;2024-02-04T02:13:30;7.13;;;5.60;;
75820;SDS011;64454;51.984;9.838;2024-02-04T02:16:04;9.13;;;5.47;;
75820;SDS011;64454;51.984;9.838;2024-02-04T02:18:39;8.85;;;5.63;;
75820;SDS011;64454;51.984;9.838;2024-02-04T02:21:14;9.18;;;5.88;;
75820;SDS011;64454;51.984;9.838;2024-02-04T02:24:00;8.15;;;5.70;;
75820;SDS011;64454;51.984;9.838;2024-02-04T02:26:36;7.32;;;5.60;;
75820;SDS011;64454;51.984;9.838;2024-02-04T02:29:03;7.40;;;4.93;;
75820;SDS011;64454;51.984;9.838;2024-02-04T02:31:30;10.00;;;5.57;;
75820;SDS011;64454;51.984;9.838;2024-02-04T02:33:56;11.95;;;6.32;;
75820;SDS011;64454;51.984;9.838;2024-02-04T02:36:23;11.40;;;7.07;;
75820;SDS011;64454;51.984;9.838;2024-02-04T02:38:58;9.25;;;5.75;;
75820;SDS011;64454;51.984;9.838;2024-02-04T02:41:34;7.37;;;5.80;;
75820;SDS011;64454;51.984;9.838;2024-02-04T02:44:04;8.70;;;5.53;;
75820;SDS011;64454;51.984;9.838;2024-02-04T02:46:32;9.00;;;5.70;;
75820;SDS011;64454;51.984;9.838;2024-02-04T02:48:59;7.00;;;4.75;;
75820;SDS011;64454;51.984;9.838;2024-02-04T02:51:25;8.38;;;5.20;;
75820;SDS011;64454;51.984;9.838;2024-02-04T02:53:51;5.78;;;4.45;;
75820;SDS011;64454;51.984;9.838;2024-02-04T02:56:17;7.13;;;5.05;;
75820;SDS011;64454;51.984;9.838;2024-02-04T02:58:44;6.90;;;4.82;;
75820;SDS011;64454;51.984;9.838;2024-02-04T03:01:10;6.95;;;5.90;;
75820;SDS011;64454;51.984;9.838;2024-02-04T03:03:36;7.53;;;5.40;;
75820;SDS011;64454;51.984;9.838;2024-02-04T03:06:02;6.95;;;4.75;;
75820;SDS011;64454;51.984;9.838;2024-02-04T03:08:29;6.30;;;4.40;;
75820;SDS011;64454;51.984;9.838;2024-02-04T03:10:56;7.57;;;4.90;;
75820;SDS011;64454;51.984;9.838;2024-02-04T03:13:22;5.60;;;4.43;;
75820;SDS011;64454;51.984;9.838;2024-02-04T03:15:49;8.10;;;4.70;;
75820;SDS011;64454;51.984;9.838;2024-02-04T03:18:15;5.28;;;4.63;;
75820;SDS011;64454;51.984;9.838;2024-02-04T03:20:41;6.05;;;4.38;;
75820;SDS011;64454;51.984;9.838;2024-02-04T03:23:07;5.60;;;4.10;;
75820;SDS011;64454;51.984;9.838;2024-02-04T03:25:34;4.78;;;4.28;;
75820;SDS011;64454;51.984;9.838;2024-02-04T03:28:00;7.20;;;4.67;;
75820;SDS011;64454;51.984;9.838;2024-02-04T03:30:26;6.10;;;4.10;;
75820;SDS011;64454;51.984;9.838;2024-02-04T03:32:53;5.90;;;4.50;;
75820;SDS011;64454;51.984;9.838;2024-02-04T03:35:19;5.88;;;4.20;;
75820;SDS011;64454;51.984;9.838;2024-02-04T03:37:45;6.95;;;4.40;;
75820;SDS011;64454;51.984;9.838;2024-02-04T03:40:11;4.00;;;3.60;;
75820;SDS011;64454;51.984;9.838;2024-02-04T03:42:38;4.65;;;3.50;;
75820;SDS011;64454;51.984;9.838;2024-02-04T03:45:05;3.67;;;3.15;;
75820;SDS011;64454;51.984;9.838;2024-02-04T03:47:32;4.32;;;3.13;;
75820;SDS011;64454;51.984;9.838;2024-02-04T03:49:59;3.40;;;2.50;;
75820;SDS011;64454;51.984;9.838;2024-02-04T03:52:25;3.40;;;2.80;;
75820;SDS011;64454;51.984;9.838;2024-02-04T03:54:51;4.13;;;2.90;;
75820;SDS011;64454;51.984;9.838;2024-02-04T03:57:17;3.90;;;2.83;;
75820;SDS011;64454;51.984;9.838;2024-02-04T03:59:44;3.42;;;3.03;;
75820;SDS011;64454;51.984;9.838;2024-02-04T04:02:11;4.00;;;2.47;;
75820;SDS011;64454;51.984;9.838;2024-02-04T04:04:39;4.28;;;2.80;;
75820;SDS011;64454;51.984;9.838;2024-02-04T04:07:07;4.65;;;2.90;;
75820;SDS011;64454;51.984;9.838;2024-02-04T04:09:33;3.20;;;2.67;;
75820;SDS011;64454;51.984;9.838;2024-02-04T04:11:59;3.97;;;3.05;;
75820;SDS011;64454;51.984;9.838;2024-02-04T04:14:25;4.10;;;2.80;;
75820;SDS011;64454;51.984;9.838;2024-02-04T04:16:51;3.03;;;2.50;;
75820;SDS011;64454;51.984;9.838;2024-02-04T04:19:17;3.50;;;2.85;;
75820;SDS011;64454;51.984;9.838;2024-02-04T04:21:43;3.60;;;2.50;;
75820;SDS011;64454;51.984;9.838;2024-02-04T04:24:10;3.08;;;2.17;;
75820;SDS011;64454;51.984;9.838;2024-02-04T04:26:36;3.17;;;2.30;;
75820;SDS011;64454;51.984;9.838;2024-02-04T04:29:02;2.42;;;2.22;;
75820;SDS011;64454;51.984;9.838;2024-02-04T04:31:28;2.20;;;2.00;;
75820;SDS011;64454;51.984;9.838;2024-02-04T04:33:54;2.80;;;2.30;;
75820;SDS011;64454;51.984;9.838;2024-02-04T04:36:20;2.80;;;1.85;;
75820;SDS011;64454;51.984;9.838;2024-02-04T04:38:46;3.00;;;2.00;;
75820;SDS011;64454;51.984;9.838;2024-02-04T04:41:16;2.33;;;1.70;;
75820;SDS011;64454;51.984;9.838;2024-02-04T04:43:42;3.72;;;1.90;;
75820;SDS011;64454;51.984;9.838;2024-02-04T04:46:08;3.22;;;2.00;;
75820;SDS011;64454;51.984;9.838;2024-02-04T04:48:34;3.00;;;1.80;;
75820;SDS011;64454;51.984;9.838;2024-02-04T04:51:00;3.70;;;2.00;;
75820;SDS011;64454;51.984;9.838;2024-02-04T04:53:26;2.10;;;1.80;;
75820;SDS011;64454;51.984;9.838;2024-02-04T04:55:52;3.53;;;2.30;;
75820;SDS011;64454;51.984;9.838;2024-02-04T04:58:19;3.20;;;2.17;;
75820;SDS011;64454;51.984;9.838;2024-02-04T05:00:45;3.40;;;2.30;;
75820;SDS011;64454;51.984;9.838;2024-02-04T05:03:11;3.10;;;2.38;;
75820;SDS011;64454;51.984;9.838;2024-02-04T05:05:37;4.57;;;1.98;;
75820;SDS011;64454;51.984;9.838;2024-02-04T05:08:04;2.33;;;1.80;;
75820;SDS011;64454;51.984;9.838;2024-02-04T05:10:30;5.88;;;2.38;;
75820;SDS011;64454;51.984;9.838;2024-02-04T05:12:56;2.72;;;2.22;;
75820;SDS011;64454;51.984;9.838;2024-02-04T05:15:23;3.00;;;2.40;;
75820;SDS011;64454;51.984;9.838;2024-02-04T05:17:50;2.58;;;2.15;;
75820;SDS011;64454;51.984;9.838;2024-02-04T05:20:16;3.60;;;2.33;;
75820;SDS011;64454;51.984;9.838;2024-02-04T05:22:42;3.00;;;2.70;;
75820;SDS011;64454;51.984;9.838;2024-02-04T05:25:08;4.82;;;3.20;;
75820;SDS011;64454;51.984;9.838;2024-02-04T05:27:35;3.00;;;2.50;;
75820;SDS011;64454;51.984;9.838;2024-02-04T05:30:01;3.55;;;2.70;;
75820;SDS011;64454;51.984;9.838;2024-02-04T05:32:29;3.38;;;2.75;;
75820;SDS011;64454;51.984;9.838;2024-02-04T05:34:55;4.00;;;3.30;;
75820;SDS011;64454;51.984;9.838;2024-02-04T05:37:21;3.75;;;2.92;;
75820;SDS011;64454;51.984;9.838;2024-02-04T05:39:47;5.57;;;2.97;;
75820;SDS011;64454;51.984;9.838;2024-02-04T05:42:14;3.00;;;2.60;;
75820;SDS011;64454;51.984;9.838;2024-02-04T05:44:40;4.40;;;2.78;;
75820;SDS011;64454;51.984;9.838;2024-02-04T05:47:06;3.20;;;2.78;;
75820;SDS011;64454;51.984;9.838;2024-02-04T05:49:32;4.28;;;3.20;;
75820;SDS011;64454;51.984;9.838;2024-02-04T05:51:58;3.97;;;3.15;;
75820;SDS011;64454;51.984;9.838;2024-02-04T05:54:25;3.60;;;2.53;;
75820;SDS011;64454;51.984;9.838;2024-02-04T05:56:51;3.90;;;2.60;;
75820;SDS011;64454;51.984;9.838;2024-02-04T05:59:17;3.95;;;2.55;;
75820;SDS011;64454;51.984;9.838;2024-02-04T06:01:43;3.00;;;2.30;;
75820;SDS011;64454;51.984;9.838;2024-02-04T06:04:09;3.30;;;2.50;;
75820;SDS011;64454;51.984;9.838;2024-02-04T06:06:36;2.78;;;2.30;;
75820;SDS011;64454;51.984;9.838;2024-02-04T06:09:03;3.42;;;2.60;;
75820;SDS011;64454;51.984;9.838;2024-02-04T06:11:29;3.03;;;2.17;;
75820;SDS011;64454;51.984;9.838;2024-02-04T06:13:55;3.70;;;2.63;;
75820;SDS011;64454;51.984;9.838;2024-02-04T06:16:21;3.00;;;2.20;;
75820;SDS011;64454;51.984;9.838;2024-02-04T06:18:47;3.22;;;2.10;;
75820;SDS011;64454;51.984;9.838;2024-02-04T06:21:13;2.92;;;1.92;;
75820;SDS011;64454;51.984;9.838;2024-02-04T06:23:40;3.15;;;2.33;;
75820;SDS011;64454;51.984;9.838;2024-02-04T06:26:06;2.20;;;2.00;;
75820;SDS011;64454;51.984;9.838;2024-02-04T06:28:32;2.90;;;1.90;;
75820;SDS011;64454;51.984;9.838;2024-02-04T06:30:59;2.90;;;2.60;;
75820;SDS011;64454;51.984;9.838;2024-02-04T06:33:25;3.35;;;2.10;;
75820;SDS011;64454;51.984;9.838;2024-02-04T06:35:51;3.10;;;2.00;;
75820;SDS011;64454;51.984;9.838;2024-02-04T06:38:17;2.45;;;2.00;;
75820;SDS011;64454;51.984;9.838;2024-02-04T06:40:44;2.55;;;1.88;;
75820;SDS011;64454;51.984;9.838;2024-02-04T06:43:10;4.25;;;2.67;;
75820;SDS011;64454;51.984;9.838;2024-02-04T06:45:36;2.60;;;2.20;;
75820;SDS011;64454;51.984;9.838;2024-02-04T06:48:03;3.38;;;2.08;;
75820;SDS011;64454;51.984;9.838;2024-02-04T06:50:30;2.92;;;2.20;;
75820;SDS011;64454;51.984;9.838;2024-02-04T06:52:56;3.70;;;2.60;;
75820;SDS011;64454;51.984;9.838;2024-02-04T06:55:22;2.38;;;2.00;;
75820;SDS011;64454;51.984;9.838;2024-02-04T06:57:49;3.17;;;2.00;;
75820;SDS011;64454;51.984;9.838;2024-02-04T07:00:15;3.30;;;2.42;;
75820;SDS011;64454;51.984;9.838;2024-02-04T07:02:42;3.67;;;2.35;;
75820;SDS011;64454;51.984;9.838;2024-02-04T07:05:08;3.50;;;2.00;;
75820;SDS011;64454;51.984;9.838;2024-02-04T07:07:35;3.83;;;2.20;;
75820;SDS011;64454;51.984;9.838;2024-02-04T07:10:01;2.00;;;1.80;;
75820;SDS011;64454;51.984;9.838;2024-02-04T07:12:28;2.13;;;1.50;;
75820;SDS011;64454;51.984;9.838;2024-02-04T07:14:54;3.15;;;2.20;;
75820;SDS011;64454;51.984;9.838;2024-02-04T07:17:20;2.90;;;1.70;;
75820;SDS011;64454;51.984;9.838;2024-02-04T07:19:46;2.47;;;2.08;;
75820;SDS011;64454;51.984;9.838;2024-02-04T07:22:13;2.08;;;1.77;;
75820;SDS011;64454;51.984;9.838;2024-02-04T07:24:39;2.90;;;1.30;;
75820;SDS011;64454;51.984;9.838;2024-02-04T07:27:05;3.22;;;1.88;;
75820;SDS011;64454;51.984;9.838;2024-02-04T07:29:31;3.25;;;1.40;;
75820;SDS011;64454;51.984;9.838;2024-02-04T07:31:57;2.53;;;1.60;;
75820;SDS011;64454;51.984;9.838;2024-02-04T07:34:24;2.30;;;1.30;;
75820;SDS011;64454;51.984;9.838;2024-02-04T07:36:50;1.93;;;1.40;;
75820;SDS011;64454;51.984;9.838;2024-02-04T07:39:17;3.05;;;1.40;;
75820;SDS011;64454;51.984;9.838;2024-02-04T07:41:43;2.43;;;1.63;;
75820;SDS011;64454;51.984;9.838;2024-02-04T07:44:09;2.60;;;1.60;;
75820;SDS011;64454;51.984;9.838;2024-02-04T07:46:35;1.92;;;1.30;;
75820;SDS011;64454;51.984;9.838;2024-02-04T07:49:02;1.63;;;1.10;;
75820;SDS011;64454;51.984;9.838;2024-02-04T07:51:28;2.10;;;1.17;;
75820;SDS011;64454;51.984;9.838;2024-02-04T07:53:55;1.50;;;1.13;;
75820;SDS011;64454;51.984;9.838;2024-02-04T07:56:21;4.60;;;1.30;;
75820;SDS011;64454;51.984;9.838;2024-02-04T07:58:47;4.20;;;1.40;;
75820;SDS011;64454;51.984;9.838;2024-02-04T08:01:13;2.15;;;1.40;;
75820;SDS011;64454;51.984;9.838;2024-02-04T08:03:39;2.80;;;1.40;;
75820;SDS011;64454;51.984;9.838;2024-02-04T08:06:06;2.53;;;1.45;;
75820;SDS011;64454;51.984;9.838;2024-02-04T08:08:32;2.95;;;1.40;;
75820;SDS011;64454;51.984;9.838;2024-02-04T08:10:58;2.60;;;1.33;;
75820;SDS011;64454;51.984;9.838;2024-02-04T08:13:24;2.87;;;1.43;;
75820;SDS011;64454;51.984;9.838;2024-02-04T08:15:50;3.30;;;2.20;;
75820;SDS011;64454;51.984;9.838;2024-02-04T08:18:16;2.58;;;1.75;;
75820;SDS011;64454;51.984;9.838;2024-02-04T08:20:42;4.65;;;2.10;;
75820;SDS011;64454;51.984;9.838;2024-02-04T08:23:09;2.10;;;1.80;;
75820;SDS011;64454;51.984;9.838;2024-02-04T08:25:35;2.80;;;1.63;;
75820;SDS011;64454;51.984;9.838;2024-02-04T08:28:02;3.15;;;1.95;;
75820;SDS011;64454;51.984;9.838;2024-02-04T08:30:29;2.40;;;1.50;;
75820;SDS011;64454;51.984;9.838;2024-02-04T08:32:56;4.88;;;2.10;;
75820;SDS011;64454;51.984;9.838;2024-02-04T08:35:22;3.20;;;2.20;;
75820;SDS011;64454;51.984;9.838;2024-02-04T08:37:48;3.92;;;2.20;;
75820;SDS011;64454;51.984;9.838;2024-02-04T08:40:15;2.58;;;2.05;;
75820;SDS011;64454;51.984;9.838;2024-02-04T08:42:41;3.25;;;2.30;;
75820;SDS011;64454;51.984;9.838;2024-02-04T08:45:08;4.03;;;2.60;;
75820;SDS011;64454;51.984;9.838;2024-02-04T08:47:35;2.58;;;2.10;;
75820;SDS011;64454;51.984;9.838;2024-02-04T08:50:02;2.97;;;2.30;;
75820;SDS011;64454;51.984;9.838;2024-02-04T08:52:28;4.73;;;2.50;;
75820;SDS011;64454;51.984;9.838;2024-02-04T08:54:54;3.88;;;2.40;;
75820;SDS011;64454;51.984;9.838;2024-02-04T08:57:21;3.60;;;2.40;;
75820;SDS011;64454;51.984;9.838;2024-02-04T08:59:47;4.72;;;2.28;;
75820;SDS011;64454;51.984;9.838;2024-02-04T09:02:13;5.53;;;2.07;;
75820;SDS011;64454;51.984;9.838;2024-02-04T09:04:39;4.45;;;2.40;;
75820;SDS011;64454;51.984;9.838;2024-02-04T09:07:05;2.10;;;1.60;;
75820;SDS011;64454;51.984;9.838;2024-02-04T09:09:32;5.80;;;2.20;;
75820;SDS011;64454;51.984;9.838;2024-02-04T09:11:58;3.30;;;1.90;;
75820;SDS011;64454;51.984;9.838;2024-02-04T09:14:25;4.25;;;2.28;;
75820;SDS011;64454;51.984;9.838;2024-02-04T09:16:51;3.97;;;2.42;;
75820;SDS011;64454;51.984;9.838;2024-02-04T09:19:17;3.28;;;1.88;;
75820;SDS011;64454;51.984;9.838;2024-02-04T09:21:43;3.03;;;1.50;;
75820;SDS011;64454;51.984;9.838;2024-02-04T09:24:09;3.80;;;1.85;;
75820;SDS011;64454;51.984;9.838;2024-02-04T09:26:36;3.00;;;1.92;;
75820;SDS011;64454;51.984;9.838;2024-02-04T09:29:02;3.60;;;1.70;;
75820;SDS011;64454;51.984;9.838;2024-02-04T09:31:29;3.38;;;1.60;;
75820;SDS011;64454;51.984;9.838;2024-02-04T09:33:55;2.60;;;1.23;;
75820;SDS011;64454;51.984;9.838;2024-02-04T09:36:21;2.80;;;1.30;;
75820;SDS011;64454;51.984;9.838;2024-02-04T09:38:47;4.18;;;1.50;;
75820;SDS011;64454;51.984;9.838;2024-02-04T09:41:13;3.90;;;1.40;;
75820;SDS011;64454;51.984;9.838;2024-02-04T09:43:40;4.72;;;1.70;;
75820;SDS011;64454;51.984;9.838;2024-02-04T09:46:07;4.30;;;1.40;;
75820;SDS011;64454;51.984;9.838;2024-02-04T09:48:34;4.80;;;1.30;;
75820;SDS011;64454;51.984;9.838;2024-02-04T09:51:05;3.15;;;1.70;;
75820;SDS011;64454;51.984;9.838;2024-02-04T09:53:32;4.63;;;1.80;;
75820;SDS011;64454;51.984;9.838;2024-02-04T09:56:00;5.00;;;1.98;;
75820;SDS011;64454;51.984;9.838;2024-02-04T09:58:28;3.33;;;1.60;;
75820;SDS011;64454;51.984;9.838;2024-02-04T10:00:55;2.72;;;1.50;;
75820;SDS011;64454;51.984;9.838;2024-02-04T10:03:22;4.35;;;1.40;;
75820;SDS011;64454;51.984;9.838;2024-02-04T10:05:49;3.17;;;1.40;;
75820;SDS011;64454;51.984;9.838;2024-02-04T10:08:15;2.60;;;1.30;;
75820;SDS011;64454;51.984;9.838;2024-02-04T10:10:41;2.40;;;1.40;;
75820;SDS011;64454;51.984;9.838;2024-02-04T10:13:08;5.38;;;1.90;;
75820;SDS011;64454;51.984;9.838;2024-02-04T10:15:35;4.15;;;1.50;;
75820;SDS011;64454;51.984;9.838;2024-02-04T10:18:02;3.78;;;1.50;;
75820;SDS011;64454;51.984;9.838;2024-02-04T10:20:30;4.10;;;1.55;;
75820;SDS011;64454;51.984;9.838;2024-02-04T10:22:56;5.43;;;1.50;;
75820;SDS011;64454;51.984;9.838;2024-02-04T10:25:23;4.93;;;1.67;;
75820;SDS011;64454;51.984;9.838;2024-02-04T10:27:49;4.97;;;1.45;;
75820;SDS011;64454;51.984;9.838;2024-02-04T10:30:18;2.90;;;1.42;;
75820;SDS011;64454;51.984;9.838;2024-02-04T10:32:44;5.30;;;2.00;;
75820;SDS011;64454;51.984;9.838;2024-02-04T10:35:11;3.03;;;1.67;;
75820;SDS011;64454;51.984;9.838;2024-02-04T10:37:37;2.47;;;1.30;;
75820;SDS011;64454;51.984;9.838;2024-02-04T10:40:04;3.60;;;1.50;;
75820;SDS011;64454;51.984;9.838;2024-02-04T10:42:32;5.90;;;1.80;;
75820;SDS011;64454;51.984;9.838;2024-02-04T10:45:01;3.90;;;1.40;;
75820;SDS011;64454;51.984;9.838;2024-02-04T10:47:33;5.50;;;1.60;;
75820;SDS011;64454;51.984;9.838;2024-02-04T10:50:03;3.90;;;1.65;;
75820;SDS011;64454;51.984;9.838;2024-02-04T10:52:32;3.80;;;1.40;;
75820;SDS011;64454;51.984;9.838;2024-02-04T10:55:04;2.88;;;1.45;;
75820;SDS011;64454;51.984;9.838;2024-02-04T10:57:34;4.50;;;1.40;;
75820;SDS011;64454;51.984;9.838;2024-02-04T11:00:00;2.17;;;1.20;;
75820;SDS011;64454;51.984;9.838;2024-02-04T11:02:33;2.33;;;1.40;;
75820;SDS011;64454;51.984;9.838;2024-02-04T11:05:01;6.28;;;1.80;;
75820;SDS011;64454;51.984;9.838;2024-02-04T11:07:30;4.07;;;1.65;;
75820;SDS011;64454;51.984;9.838;2024-02-04T11:09:58;3.05;;;1.58;;
75820;SDS011;64454;51.984;9.838;2024-02-04T11:12:26;4.88;;;1.60;;
75820;SDS011;64454;51.984;9.838;2024-02-04T11:14:57;5.00;;;2.00;;
75820;SDS011;64454;51.984;9.838;2024-02-04T11:17:35;4.57;;;1.52;;
75820;SDS011;64454;51.984;9.838;2024-02-04T11:20:31;3.70;;;1.23;;
75820;SDS011;64454;51.984;9.838;2024-02-04T11:23:21;2.60;;;1.27;;
75820;SDS011;64454;51.984;9.838;2024-02-04T11:26:00;2.88;;;1.60;;
75820;SDS011;64454;51.984;9.838;2024-02-04T11:28:30;1.58;;;1.33;;
75820;SDS011;64454;51.984;9.838;2024-02-04T11:30:57;3.40;;;1.48;;
75820;SDS011;64454;51.984;9.838;2024-02-04T11:33:23;2.97;;;1.30;;
75820;SDS011;64454;51.984;9.838;2024-02-04T11:35:58;3.10;;;1.50;;
75820;SDS011;64454;51.984;9.838;2024-02-04T11:38:29;6.27;;;4.50;;
75820;SDS011;64454;51.984;9.838;2024-02-04T11:41:01;5.50;;;3.28;;
75820;SDS011;64454;51.984;9.838;2024-02-04T11:43:28;2.60;;;1.10;;
75820;SDS011;64454;51.984;9.838;2024-02-04T11:45:57;4.03;;;1.50;;
75820;SDS011;64454;51.984;9.838;2024-02-04T11:48:28;2.30;;;1.40;;
75820;SDS011;64454;51.984;9.838;2024-02-04T11:50:57;3.47;;;2.10;;
75820;SDS011;64454;51.984;9.838;2024-02-04T11:53:25;4.97;;;1.80;;
75820;SDS011;64454;51.984;9.838;2024-02-04T11:55:53;3.47;;;1.60;;
75820;SDS011;64454;51.984;9.838;2024-02-04T11:58:20;2.80;;;1.37;;
75820;SDS011;64454;51.984;9.838;2024-02-04T12:00:47;2.00;;;1.17;;
75820;SDS011;64454;51.984;9.838;2024-02-04T12:03:14;4.28;;;1.05;;
75820;SDS011;64454;51.984;9.838;2024-02-04T12:05:40;2.70;;;1.30;;
75820;SDS011;64454;51.984;9.838;2024-02-04T12:08:08;2.97;;;1.30;;
75820;SDS011;64454;51.984;9.838;2024-02-04T12:10:35;2.45;;;1.30;;
75820;SDS011;64454;51.984;9.838;2024-02-04T12:13:02;6.18;;;1.30;;
75820;SDS011;64454;51.984;9.838;2024-02-04T12:15:30;3.50;;;1.40;;
75820;SDS011;64454;51.984;9.838;2024-02-04T12:18:05;3.15;;;1.50;;
75820;SDS011;64454;51.984;9.838;2024-02-04T12:20:32;3.00;;;1.10;;
75820;SDS011;64454;51.984;9.838;2024-02-04T12:22:58;2.47;;;1.23;;
75820;SDS011;64454;51.984;9.838;2024-02-04T12:25:27;3.03;;;1.50;;
75820;SDS011;64454;51.984;9.838;2024-02-04T12:27:55;1.60;;;1.08;;
75820;SDS011;64454;51.984;9.838;2024-02-04T12:30:22;2.40;;;1.50;;
75820;SDS011;64454;51.984;9.838;2024-02-04T12:32:55;1.40;;;1.17;;
75820;SDS011;64454;51.984;9.838;2024-02-04T12:35:23;2.17;;;1.30;;
75820;SDS011;64454;51.984;9.838;2024-02-04T12:37:49;4.22;;;1.80;;
75820;SDS011;64454;51.984;9.838;2024-02-04T12:40:20;2.10;;;1.40;;
75820;SDS011;64454;51.984;9.838;2024-02-04T12:42:51;2.38;;;1.40;;
75820;SDS011;64454;51.984;9.838;2024-02-04T12:45:19;1.40;;;1.30;;
75820;SDS011;64454;51.984;9.838;2024-02-04T12:47:48;12.63;;;8.02;;
75820;SDS011;64454;51.984;9.838;2024-02-04T12:50:15;2.55;;;1.80;;
75820;SDS011;64454;51.984;9.838;2024-02-04T12:52:43;3.35;;;1.80;;
75820;SDS011;64454;51.984;9.838;2024-02-04T12:55:18;3.22;;;1.50;;
75820;SDS011;64454;51.984;9.838;2024-02-04T12:57:47;4.27;;;2.13;;
75820;SDS011;64454;51.984;9.838;2024-02-04T13:00:17;2.33;;;1.70;;
75820;SDS011;64454;51.984;9.838;2024-02-04T13:02:43;2.40;;;1.83;;
75820;SDS011;64454;51.984;9.838;2024-02-04T13:05:10;3.30;;;1.50;;
75820;SDS011;64454;51.984;9.838;2024-02-04T13:07:51;3.88;;;1.50;;
75820;SDS011;64454;51.984;9.838;2024-02-04T13:10:21;3.87;;;1.70;;
75820;SDS011;64454;51.984;9.838;2024-02-04T13:12:57;2.00;;;1.45;;
75820;SDS011;64454;51.984;9.838;2024-02-04T13:15:25;4.00;;;1.83;;
75820;SDS011;64454;51.984;9.838;2024-02-04T13:17:52;1.92;;;1.70;;
75820;SDS011;64454;51.984;9.838;2024-02-04T13:20:18;2.90;;;1.35;;
75820;SDS011;64454;51.984;9.838;2024-02-04T13:22:44;2.38;;;2.10;;
75820;SDS011;64454;51.984;9.838;2024-02-04T13:25:11;4.07;;;2.20;;
75820;SDS011;64454;51.984;9.838;2024-02-04T13:27:37;3.10;;;2.10;;
75820;SDS011;64454;51.984;9.838;2024-02-04T13:30:03;3.60;;;1.90;;
75820;SDS011;64454;51.984;9.838;2024-02-04T13:32:35;3.80;;;2.03;;
75820;SDS011;64454;51.984;9.838;2024-02-04T13:35:01;2.47;;;2.28;;
75820;SDS011;64454;51.984;9.838;2024-02-04T13:37:27;3.40;;;2.58;;
75820;SDS011;64454;51.984;9.838;2024-02-04T13:39:53;3.88;;;2.38;;
75820;SDS011;64454;51.984;9.838;2024-02-04T13:42:20;2.88;;;2.30;;
75820;SDS011;64454;51.984;9.838;2024-02-04T13:44:46;3.13;;;2.70;;
75820;SDS011;64454;51.984;9.838;2024-02-04T13:47:12;3.90;;;2.50;;
75820;SDS011;64454;51.984;9.838;2024-02-04T13:49:38;4.25;;;2.40;;
75820;SDS011;64454;51.984;9.838;2024-02-04T13:52:04;3.13;;;2.73;;
75820;SDS011;64454;51.984;9.838;2024-02-04T13:54:31;3.05;;;2.10;;
75820;SDS011;64454;51.984;9.838;2024-02-04T13:56:57;4.38;;;2.75;;
75820;SDS011;64454;51.984;9.838;2024-02-04T13:59:24;4.47;;;2.67;;
75820;SDS011;64454;51.984;9.838;2024-02-04T14:01:50;4.90;;;2.60;;
75820;SDS011;64454;51.984;9.838;2024-02-04T14:04:16;4.45;;;2.75;;
75820;SDS011;64454;51.984;9.838;2024-02-04T14:06:42;3.03;;;2.40;;
75820;SDS011;64454;51.984;9.838;2024-02-04T14:09:08;2.90;;;2.60;;
75820;SDS011;64454;51.984;9.838;2024-02-04T14:11:37;3.45;;;2.03;;
75820;SDS011;64454;51.984;9.838;2024-02-04T14:14:03;2.80;;;2.30;;
75820;SDS011;64454;51.984;9.838;2024-02-04T14:16:30;3.90;;;2.40;;
75820;SDS011;64454;51.984;9.838;2024-02-04T14:18:56;2.55;;;2.20;;
75820;SDS011;64454;51.984;9.838;2024-02-04T14:21:22;3.90;;;2.10;;
75820;SDS011;64454;51.984;9.838;2024-02-04T14:23:48;2.20;;;1.40;;
75820;SDS011;64454;51.984;9.838;2024-02-04T14:26:17;2.15;;;1.80;;
75820;SDS011;64454;51.984;9.838;2024-02-04T14:28:44;2.17;;;1.97;;
75820;SDS011;64454;51.984;9.838;2024-02-04T14:31:10;4.82;;;2.70;;
75820;SDS011;64454;51.984;9.838;2024-02-04T14:33:37;2.90;;;2.63;;
75820;SDS011;64454;51.984;9.838;2024-02-04T14:36:04;4.97;;;2.40;;
75820;SDS011;64454;51.984;9.838;2024-02-04T14:38:32;10.38;;;7.43;;
75820;SDS011;64454;51.984;9.838;2024-02-04T14:40:58;5.60;;;2.80;;
75820;SDS011;64454;51.984;9.838;2024-02-04T14:43:24;2.97;;;2.10;;
75820;SDS011;64454;51.984;9.838;2024-02-04T14:45:50;3.38;;;2.20;;
75820;SDS011;64454;51.984;9.838;2024-02-04T14:48:17;3.65;;;2.40;;